Aviation Digital Data Service (ADDS)

Output produced by METARs form (0537 UTC 24 January 2019)
found at http://www.aviationweather.gov/metar/data/
 
Forecast for: UTTT (TASKENT/YUZNI , UZ)
Text: TAF UTTT 240500Z 2406/2506 06008KT 7000 NSC
Forecast period: 0600 UTC 24 January 2019 to 0600 UTC 25 January 2019
Forecast type: FROM: standard forecast or significant change
Winds: from the ENE (60 degrees) at 9 MPH (8 knots; 4.1 m/s)
Visibility: 4 miles (7 km)
Ceiling: unknown
Clouds: missing
Weather: no significant weather forecast for this period
Text: TEMPO 2415/2424 3000 BR
Forecast period: 1500 UTC 24 January 2019 to 0000 UTC 25 January 2019
Forecast type: TEMPORARY: The following changes expected for less than half the time period
Visibility: 1.86 miles (2.99 km)
Ceiling: unknown
Clouds: missing
Weather: BR  (mist)